createdAt,value
2022-08-18T00:01:06.243Z,23.51
2022-08-18T00:03:53.270Z,23.55
2022-08-18T00:06:20.416Z,23.52
2022-08-18T00:08:47.187Z,23.56
2022-08-18T00:11:13.939Z,23.56
2022-08-18T00:13:41.393Z,23.57
2022-08-18T00:16:08.055Z,23.54
2022-08-18T00:18:34.667Z,23.49
2022-08-18T00:21:02.261Z,23.54
2022-08-18T00:23:29.977Z,23.55
2022-08-18T00:25:59.595Z,23.57
2022-08-18T00:28:26.527Z,23.58
2022-08-18T00:30:53.834Z,23.58
2022-08-18T00:33:21.164Z,23.51
2022-08-18T00:35:47.921Z,23.44
2022-08-18T00:38:24.971Z,23.43
2022-08-18T00:40:54.602Z,23.47
2022-08-18T00:43:45.137Z,23.45
2022-08-18T00:46:18.294Z,23.34
2022-08-18T00:48:48.626Z,23.36
2022-08-18T00:51:29.160Z,23.38
2022-08-18T00:53:55.939Z,23.38
2022-08-18T00:56:28.574Z,23.31
2022-08-18T00:59:02.984Z,23.20
2022-08-18T01:01:32.925Z,23.19
2022-08-18T01:04:12.510Z,23.01
2022-08-18T01:06:44.898Z,23.04
2022-08-18T01:09:11.996Z,23.02
2022-08-18T01:11:39.401Z,22.99
2022-08-18T01:14:09.039Z,22.95
2022-08-18T01:16:57.349Z,22.89
2022-08-18T01:19:45.020Z,22.76
2022-08-18T01:22:21.371Z,22.77
2022-08-18T01:25:23.556Z,22.76
2022-08-18T01:27:54.186Z,22.80
2022-08-18T01:30:28.053Z,22.85
2022-08-18T01:32:55.359Z,22.85
2022-08-18T01:35:25.638Z,22.93
2022-08-18T01:37:54.037Z,23.04
2022-08-18T01:41:21.928Z,23.09
2022-08-18T01:43:10.361Z,23.12
2022-08-18T01:45:37.365Z,23.05
2022-08-18T01:48:04.933Z,22.98
2022-08-18T01:50:35.212Z,22.96
2022-08-18T01:53:05.437Z,22.92
2022-08-18T01:55:37.045Z,22.87
2022-08-18T01:58:04.775Z,22.85
2022-08-18T02:00:32.453Z,22.83
2022-08-18T02:03:02.603Z,22.83
2022-08-18T02:05:38.709Z,22.87
2022-08-18T02:08:07.192Z,22.87
2022-08-18T02:10:37.921Z,22.85
2022-08-18T02:13:05.357Z,22.85
2022-08-18T02:15:34.895Z,22.85
2022-08-18T02:18:01.787Z,22.90
2022-08-18T02:20:28.648Z,22.87
2022-08-18T02:22:55.307Z,22.86
2022-08-18T02:25:23.053Z,22.83
2022-08-18T02:27:50.436Z,22.77
2022-08-18T02:30:18.782Z,22.75
2022-08-18T02:32:45.525Z,22.70
2022-08-18T02:35:12.572Z,22.64
2022-08-18T02:37:42.192Z,22.61
2022-08-18T02:40:15.103Z,22.59
2022-08-18T02:42:43.765Z,22.68
2022-08-18T02:45:11.180Z,22.75
2022-08-18T02:47:37.789Z,22.77
2022-08-18T02:50:04.976Z,22.77
2022-08-18T02:52:34.538Z,22.76
2022-08-18T02:55:04.561Z,22.86
2022-08-18T02:57:32.206Z,22.88
2022-08-18T03:00:00.241Z,22.83
2022-08-18T03:02:26.950Z,22.87
2022-08-18T03:04:53.749Z,22.81
2022-08-18T03:07:20.440Z,22.76
2022-08-18T03:09:47.087Z,22.61
2022-08-18T03:12:13.687Z,20.99
2022-08-18T03:14:40.306Z,19.63
2022-08-18T03:17:09.022Z,20.15
2022-08-18T03:19:36.033Z,20.37
2022-08-18T03:22:03.569Z,20.48
2022-08-18T03:24:32.319Z,20.62
2022-08-18T03:27:01.624Z,20.46
2022-08-18T03:29:32.518Z,20.22
2022-08-18T03:32:04.038Z,20.19
2022-08-18T03:34:31.647Z,20.42
2022-08-18T03:36:58.835Z,20.43
2022-08-18T03:39:27.961Z,20.49
2022-08-18T03:41:58.353Z,20.47
2022-08-18T03:44:32.402Z,20.43
2022-08-18T03:47:00.970Z,20.34
2022-08-18T03:49:27.917Z,20.24
2022-08-18T03:51:55.568Z,20.28
2022-08-18T03:54:22.979Z,20.46
2022-08-18T03:56:49.849Z,20.45
2022-08-18T03:59:22.617Z,20.24
2022-08-18T04:01:51.591Z,20.30
2022-08-18T04:04:20.876Z,20.37
2022-08-18T04:06:54.847Z,20.44
2022-08-18T04:09:22.926Z,20.31
2022-08-18T04:11:49.691Z,20.28
2022-08-18T04:14:19.210Z,20.37
2022-08-18T04:16:46.934Z,20.62
2022-08-18T04:19:14.194Z,20.78
2022-08-18T04:21:53.721Z,21.02
2022-08-18T04:24:21.206Z,20.88
2022-08-18T04:26:48.664Z,20.75
2022-08-18T04:29:17.745Z,20.71
2022-08-18T04:31:44.687Z,20.65
2022-08-18T04:34:12.418Z,20.80
2022-08-18T04:36:40.110Z,20.91
2022-08-18T04:39:08.951Z,20.92
2022-08-18T04:41:39.763Z,20.90
2022-08-18T04:44:08.832Z,21.08
2022-08-18T04:46:47.797Z,21.23
2022-08-18T04:49:16.212Z,21.22
2022-08-18T04:52:34.112Z,21.37
2022-08-18T04:54:57.039Z,21.54
2022-08-18T04:57:24.048Z,21.61
2022-08-18T04:59:52.429Z,21.67
2022-08-18T05:02:21.100Z,21.72
2022-08-18T05:04:48.086Z,21.84
2022-08-18T05:07:22.488Z,21.98
2022-08-18T05:09:52.408Z,22.03
2022-08-18T05:12:28.883Z,21.79
2022-08-18T05:14:58.019Z,21.72
2022-08-18T05:17:29.968Z,21.91
2022-08-18T05:19:58.956Z,21.98
2022-08-18T05:22:30.421Z,22.02
2022-08-18T05:24:58.277Z,22.14
2022-08-18T05:27:25.126Z,22.20
2022-08-18T05:29:51.999Z,22.26
2022-08-18T05:32:37.248Z,22.20
2022-08-18T05:35:12.104Z,22.27
2022-08-18T05:37:48.075Z,22.26
2022-08-18T05:40:15.515Z,22.25
2022-08-18T05:42:45.625Z,22.30
2022-08-18T05:45:16.910Z,22.24
2022-08-18T05:47:43.683Z,22.30
2022-08-18T05:50:18.494Z,22.30
2022-08-18T05:53:13.305Z,22.21
2022-08-18T05:56:12.698Z,22.13
2022-08-18T05:58:45.966Z,21.98
2022-08-18T06:01:18.456Z,21.89
2022-08-18T06:04:23.716Z,21.79
2022-08-18T06:06:52.968Z,21.84
2022-08-18T06:09:36.782Z,21.91
2022-08-18T06:12:38.205Z,21.94
2022-08-18T06:15:24.634Z,22.03
2022-08-18T06:17:59.911Z,22.05
2022-08-18T06:21:04.939Z,22.26
2022-08-18T06:24:22.297Z,22.21
2022-08-18T06:27:10.207Z,22.09
2022-08-18T06:29:39.678Z,22.03
2022-08-18T06:32:28.356Z,21.94
2022-08-18T06:35:11.738Z,21.92
2022-08-18T06:38:09.083Z,21.78
2022-08-18T06:40:38.210Z,21.59
2022-08-18T06:43:10.070Z,21.50
2022-08-18T06:45:41.895Z,21.35
2022-08-18T06:48:43.979Z,21.13
2022-08-18T06:51:15.283Z,20.98
2022-08-18T06:53:54.317Z,20.94
2022-08-18T06:56:41.562Z,20.98
2022-08-18T06:59:26.150Z,21.01
2022-08-18T07:02:21.771Z,20.93
2022-08-18T07:05:20.490Z,20.90
2022-08-18T07:08:12.291Z,20.92
2022-08-18T07:10:51.926Z,21.22
2022-08-18T07:13:31.019Z,21.49
2022-08-18T07:16:34.488Z,21.66
2022-08-18T07:19:13.012Z,21.59
2022-08-18T07:21:47.699Z,21.67
2022-08-18T07:24:27.340Z,21.78
2022-08-18T07:27:07.956Z,21.73
2022-08-18T07:29:57.610Z,21.66
2022-08-18T07:32:30.346Z,21.73
2022-08-18T07:35:00.684Z,21.73
2022-08-18T07:37:56.334Z,21.72
2022-08-18T07:40:38.382Z,21.67
2022-08-18T07:43:24.033Z,21.83
2022-08-18T07:45:56.032Z,22.10
2022-08-18T07:48:40.851Z,22.16
2022-08-18T07:51:24.097Z,22.32
2022-08-18T07:54:01.901Z,22.44
2022-08-18T07:57:06.824Z,22.47
2022-08-18T07:59:59.688Z,22.73
2022-08-18T08:02:54.009Z,23.03
2022-08-18T08:05:56.400Z,23.30
2022-08-18T08:08:35.768Z,23.32
2022-08-18T08:11:37.547Z,23.46
2022-08-18T08:14:04.224Z,23.59
2022-08-18T08:16:44.495Z,23.62
2022-08-18T08:19:14.158Z,23.69
2022-08-18T08:21:52.867Z,23.85
2022-08-18T08:24:39.622Z,23.97
2022-08-18T08:27:51.458Z,24.15
2022-08-18T08:30:21.552Z,24.19
2022-08-18T08:33:17.565Z,24.38
2022-08-18T08:36:05.724Z,24.52
2022-08-18T08:38:47.739Z,24.61
2022-08-18T08:41:26.649Z,24.69
2022-08-18T08:44:06.392Z,24.78
2022-08-18T08:46:47.577Z,24.76
2022-08-18T08:49:42.631Z,24.84
2022-08-18T08:52:24.840Z,24.96
2022-08-18T08:55:03.180Z,24.95
2022-08-18T08:57:39.211Z,24.99
2022-08-18T09:00:09.090Z,25.12
2022-08-18T09:02:58.756Z,25.27
2022-08-18T09:05:29.871Z,25.46
2022-08-18T09:08:28.396Z,25.49
2022-08-18T09:11:12.196Z,25.54
2022-08-18T09:13:44.597Z,25.61
2022-08-18T09:16:41.409Z,25.56
2022-08-18T09:19:45.562Z,25.71
2022-08-18T09:22:24.629Z,25.85
2022-08-18T09:24:54.884Z,26.02
2022-08-18T09:28:11.803Z,26.18
2022-08-18T09:31:01.664Z,26.30
2022-08-18T09:34:21.429Z,26.27
2022-08-18T09:36:58.036Z,26.32
2022-08-18T09:39:56.636Z,26.46
2022-08-18T09:42:50.609Z,26.54
2022-08-18T09:45:34.378Z,26.68
2022-08-18T09:51:33.023Z,26.70
2022-08-18T09:54:20.850Z,26.71
2022-08-18T09:56:54.431Z,26.92
2022-08-18T09:59:35.168Z,26.90
2022-08-18T10:02:24.199Z,26.99
2022-08-18T10:05:20.436Z,26.89
2022-08-18T10:07:56.188Z,27.02
2022-08-18T10:14:02.860Z,27.17
2022-08-18T10:17:21.683Z,27.21
2022-08-18T10:20:04.718Z,27.28
2022-08-18T10:22:47.886Z,27.27
2022-08-18T10:25:46.446Z,27.34
2022-08-18T10:31:56.164Z,27.59
2022-08-18T10:34:51.947Z,27.61
2022-08-18T10:37:32.295Z,27.66
2022-08-18T10:40:08.166Z,27.66
2022-08-18T10:42:47.620Z,27.70
2022-08-18T10:45:28.311Z,27.79
2022-08-18T10:48:16.749Z,27.95
2022-08-18T10:51:05.471Z,27.93
2022-08-18T10:53:59.426Z,27.95
2022-08-18T10:56:33.755Z,27.94
2022-08-18T10:59:18.973Z,28.03
2022-08-18T11:02:30.940Z,28.35
2022-08-18T11:04:59.958Z,28.59
2022-08-18T11:07:34.735Z,28.63
2022-08-18T11:10:29.813Z,28.62
2022-08-18T11:13:24.472Z,28.69
2022-08-18T11:16:10.330Z,28.73
2022-08-18T11:18:43.168Z,28.84
2022-08-18T11:24:44.698Z,29.03
2022-08-18T11:27:22.727Z,29.01
2022-08-18T11:29:51.488Z,29.12
2022-08-18T11:32:32.773Z,29.33
2022-08-18T11:35:27.739Z,29.38
2022-08-18T11:38:01.395Z,29.49
2022-08-18T11:41:10.716Z,29.57
2022-08-18T11:43:40.752Z,29.54
2022-08-18T11:46:28.054Z,29.49
2022-08-18T11:48:57.253Z,29.51
2022-08-18T11:51:32.162Z,29.55
2022-08-18T11:54:12.731Z,29.62
2022-08-18T11:56:39.495Z,29.74
2022-08-18T11:59:07.747Z,29.75
2022-08-18T12:01:42.177Z,29.85
2022-08-18T12:04:37.603Z,29.87
2022-08-18T12:07:10.912Z,29.92
2022-08-18T12:10:19.449Z,30.05
2022-08-18T12:12:48.603Z,30.03
2022-08-18T12:15:24.094Z,30.11
2022-08-18T12:17:54.113Z,30.15
2022-08-18T12:20:21.865Z,30.20
2022-08-18T12:22:50.163Z,30.28
2022-08-18T12:25:25.381Z,30.45
2022-08-18T12:27:55.114Z,30.56
2022-08-18T12:30:27.471Z,30.57
2022-08-18T12:32:56.093Z,30.67
2022-08-18T12:35:32.784Z,30.70
2022-08-18T12:40:51.080Z,30.55
2022-08-18T12:43:18.413Z,30.41
2022-08-18T12:45:48.624Z,30.41
2022-08-18T12:48:15.471Z,30.48
2022-08-18T12:50:54.301Z,30.63
2022-08-18T12:53:30.709Z,30.63
2022-08-18T12:56:22.795Z,30.57
2022-08-18T12:58:52.786Z,30.59
2022-08-18T13:01:20.260Z,30.63
2022-08-18T13:04:11.011Z,30.63
2022-08-18T13:06:45.384Z,30.67
2022-08-18T13:09:34.882Z,30.74
2022-08-18T13:12:16.147Z,30.85
2022-08-18T13:14:43.655Z,30.87
2022-08-18T13:17:15.273Z,30.92
2022-08-18T13:19:57.699Z,31.05
2022-08-18T13:22:32.875Z,31.01
2022-08-18T13:25:01.801Z,30.99
2022-08-18T13:27:33.145Z,30.91
2022-08-18T13:30:16.701Z,30.97
2022-08-18T13:32:58.917Z,30.98
2022-08-18T13:35:29.792Z,31.07
2022-08-18T13:38:06.529Z,31.08
2022-08-18T13:40:46.980Z,31.17
2022-08-18T13:43:16.094Z,31.29
2022-08-18T13:45:46.893Z,31.28
2022-08-18T13:48:19.467Z,31.31
2022-08-18T13:50:46.520Z,31.23
2022-08-18T13:53:16.399Z,31.16
2022-08-18T13:55:43.483Z,31.13
2022-08-18T13:58:17.587Z,31.27
2022-08-18T14:00:52.343Z,31.43
2022-08-18T14:03:42.408Z,31.45
2022-08-18T14:06:13.230Z,31.40
2022-08-18T14:08:40.958Z,31.38
2022-08-18T14:11:09.078Z,31.40
2022-08-18T14:13:38.143Z,31.36
2022-08-18T14:16:10.501Z,31.38
2022-08-18T14:18:39.100Z,31.35
2022-08-18T14:21:24.940Z,31.34
2022-08-18T14:24:14.530Z,31.41
2022-08-18T14:26:50.196Z,31.35
2022-08-18T14:29:46.294Z,31.32
2022-08-18T14:32:06.627Z,31.34
2022-08-18T14:34:33.410Z,31.21
2022-08-18T14:37:00.031Z,31.29
2022-08-18T14:39:28.811Z,31.26
2022-08-18T14:41:58.571Z,31.19
2022-08-18T14:44:32.354Z,31.13
2022-08-18T14:47:02.425Z,31.08
2022-08-18T14:49:31.548Z,31.07
2022-08-18T14:52:01.336Z,31.05
2022-08-18T14:54:30.601Z,31.04
2022-08-18T14:57:01.701Z,31.05
2022-08-18T14:59:30.990Z,31.00
2022-08-18T15:02:06.215Z,31.01
2022-08-18T15:04:39.273Z,30.95
2022-08-18T15:07:25.648Z,30.82
2022-08-18T15:10:14.466Z,30.74
2022-08-18T15:12:41.990Z,30.63
2022-08-18T15:15:12.384Z,30.69
2022-08-18T15:17:44.584Z,30.67
2022-08-18T15:20:17.356Z,30.74
2022-08-18T15:23:04.762Z,30.85
2022-08-18T15:25:47.027Z,30.86
2022-08-18T15:28:26.227Z,30.84
2022-08-18T15:33:42.812Z,30.66
2022-08-18T15:36:10.253Z,30.55
2022-08-18T15:38:37.201Z,30.58
2022-08-18T15:41:06.358Z,30.62
2022-08-18T15:43:39.931Z,30.59
2022-08-18T15:46:14.056Z,30.52
2022-08-18T15:48:43.678Z,30.57
2022-08-18T15:51:11.927Z,30.48
2022-08-18T15:53:44.872Z,30.16
2022-08-18T15:56:21.929Z,30.29
2022-08-18T15:58:52.663Z,30.27
2022-08-18T16:01:32.410Z,30.22
2022-08-18T16:04:01.256Z,30.13
2022-08-18T16:06:32.429Z,30.16
2022-08-18T16:09:01.090Z,30.20
2022-08-18T16:11:29.803Z,30.27
2022-08-18T16:13:58.990Z,30.40
2022-08-18T16:16:35.781Z,30.50
2022-08-18T16:19:07.034Z,30.58
2022-08-18T16:21:40.414Z,30.39
2022-08-18T16:24:10.627Z,30.22
2022-08-18T16:26:41.472Z,30.22
2022-08-18T16:29:08.107Z,30.23
2022-08-18T16:31:34.751Z,30.24
2022-08-18T16:34:01.490Z,30.51
2022-08-18T16:36:28.289Z,30.67
2022-08-18T16:38:58.048Z,30.58
2022-08-18T16:41:26.330Z,30.58
2022-08-18T16:43:52.998Z,30.66
2022-08-18T16:46:26.480Z,30.87
2022-08-18T16:48:55.185Z,30.74
2022-08-18T16:51:25.449Z,30.45
2022-08-18T16:53:53.375Z,30.47
2022-08-18T16:56:26.614Z,30.55
2022-08-18T16:59:12.549Z,30.38
2022-08-18T17:01:58.887Z,30.30
2022-08-18T17:04:33.467Z,30.32
2022-08-18T17:07:04.999Z,30.47
2022-08-18T17:09:33.730Z,30.71
2022-08-18T17:12:01.238Z,30.82
2022-08-18T17:14:30.601Z,30.98
2022-08-18T17:16:58.621Z,31.00
2022-08-18T17:19:33.671Z,31.10
2022-08-18T17:22:02.277Z,31.16
2022-08-18T17:24:32.021Z,31.26
2022-08-18T17:27:26.535Z,31.30
2022-08-18T17:30:03.244Z,31.15
2022-08-18T17:32:50.185Z,31.01
2022-08-18T17:35:28.628Z,30.90
2022-08-18T17:38:57.144Z,30.86
2022-08-18T17:41:25.425Z,30.68
2022-08-18T17:43:55.662Z,30.56
2022-08-18T17:46:29.770Z,30.10
2022-08-18T17:49:10.054Z,29.97
2022-08-18T17:51:44.372Z,29.95
2022-08-18T17:54:26.720Z,29.95
2022-08-18T17:57:04.324Z,29.87
2022-08-18T18:00:17.291Z,29.77
2022-08-18T18:02:45.665Z,29.63
2022-08-18T18:05:20.738Z,29.53
2022-08-18T18:07:50.479Z,29.26
2022-08-18T18:10:23.199Z,29.00
2022-08-18T18:13:13.333Z,28.84
2022-08-18T18:15:49.156Z,28.73
2022-08-18T18:18:24.932Z,28.62
2022-08-18T18:21:22.265Z,28.50
2022-08-18T18:24:10.347Z,28.30
2022-08-18T18:26:44.877Z,28.18
2022-08-18T18:29:28.802Z,28.15
2022-08-18T18:32:01.938Z,28.03
2022-08-18T18:34:39.891Z,27.80
2022-08-18T18:37:28.965Z,27.62
2022-08-18T18:39:58.983Z,27.43
2022-08-18T18:42:29.645Z,27.35
2022-08-18T18:45:02.449Z,27.27
2022-08-18T18:47:50.078Z,27.08
2022-08-18T18:50:52.886Z,26.86
2022-08-18T18:53:32.794Z,26.87
2022-08-18T18:56:11.430Z,26.81
2022-08-18T18:58:51.408Z,26.79
2022-08-18T19:01:32.088Z,26.70
2022-08-18T19:04:19.223Z,26.66
2022-08-18T19:07:00.159Z,26.70
2022-08-18T19:09:38.201Z,26.59
2022-08-18T19:12:23.408Z,26.50
2022-08-18T19:15:00.833Z,26.43
2022-08-18T19:17:35.727Z,26.41
2022-08-18T19:20:17.388Z,26.31
2022-08-18T19:22:57.220Z,26.26
2022-08-18T19:25:29.763Z,26.26
2022-08-18T19:28:26.954Z,26.19
2022-08-18T19:30:58.381Z,26.09
2022-08-18T19:33:43.569Z,26.02
2022-08-18T19:36:21.948Z,25.91
2022-08-18T19:39:04.666Z,25.85
2022-08-18T19:41:47.918Z,25.84
2022-08-18T19:44:24.406Z,25.81
2022-08-18T19:46:54.598Z,25.71
2022-08-18T19:49:36.480Z,25.69
2022-08-18T19:52:47.910Z,25.65
2022-08-18T19:55:46.205Z,25.69
2022-08-18T19:58:22.741Z,25.58
2022-08-18T20:00:57.182Z,25.64
2022-08-18T20:03:52.516Z,25.70
2022-08-18T20:06:40.647Z,25.65
2022-08-18T20:09:32.723Z,25.65
2022-08-18T20:12:14.227Z,25.56
2022-08-18T20:14:49.001Z,25.46
2022-08-18T20:17:24.610Z,25.47
2022-08-18T20:20:15.425Z,25.38
2022-08-18T20:22:44.518Z,25.30
2022-08-18T20:25:19.992Z,25.25
2022-08-18T20:28:12.720Z,25.27
2022-08-18T20:30:52.715Z,25.20
2022-08-18T20:33:25.818Z,25.11
2022-08-18T20:36:08.125Z,25.13
2022-08-18T20:38:35.313Z,25.09
2022-08-18T20:41:27.592Z,25.02
2022-08-18T20:43:58.666Z,25.04
2022-08-18T20:46:44.656Z,25.07
2022-08-18T20:49:45.794Z,25.03
2022-08-18T20:52:37.819Z,25.07
2022-08-18T20:55:30.663Z,25.05
2022-08-18T20:58:08.264Z,25.06
2022-08-18T21:00:40.482Z,25.14
2022-08-18T21:03:13.060Z,25.21
2022-08-18T21:05:43.650Z,25.18
2022-08-18T21:08:16.690Z,25.24
2022-08-18T21:10:57.882Z,25.17
2022-08-18T21:13:40.509Z,25.19
2022-08-18T21:16:13.023Z,25.13
2022-08-18T21:18:55.247Z,25.14
2022-08-18T21:21:29.809Z,25.13
2022-08-18T21:24:02.708Z,25.12
2022-08-18T21:26:34.439Z,25.11
2022-08-18T21:29:11.209Z,25.10
2022-08-18T21:31:49.942Z,25.10
2022-08-18T21:34:29.411Z,25.09
2022-08-18T21:37:08.580Z,25.04
2022-08-18T21:39:47.989Z,24.98
2022-08-18T21:42:21.010Z,24.92
2022-08-18T21:44:51.532Z,24.90
2022-08-18T21:47:20.733Z,24.90
2022-08-18T21:50:11.650Z,24.94
2022-08-18T21:52:51.058Z,24.89
2022-08-18T21:55:35.651Z,24.90
2022-08-18T21:58:16.703Z,24.96
2022-08-18T22:01:07.964Z,24.92
2022-08-18T22:03:36.443Z,24.89
2022-08-18T22:06:33.593Z,24.89
2022-08-18T22:09:28.408Z,24.83
2022-08-18T22:12:51.392Z,24.79
2022-08-18T22:15:28.249Z,24.84
2022-08-18T22:18:01.008Z,24.82
2022-08-18T22:20:45.196Z,24.77
2022-08-18T22:23:30.843Z,24.81
2022-08-18T22:26:12.495Z,24.82
2022-08-18T22:29:20.994Z,24.72
2022-08-18T22:31:51.240Z,24.78
2022-08-18T22:34:27.911Z,24.76
2022-08-18T22:37:09.494Z,24.78
2022-08-18T22:39:49.769Z,24.83
2022-08-18T22:42:20.802Z,24.68
2022-08-18T22:44:49.025Z,24.73
2022-08-18T22:47:16.302Z,24.69
2022-08-18T22:49:47.502Z,24.54
2022-08-18T22:52:19.388Z,24.58
2022-08-18T22:54:46.437Z,24.53
2022-08-18T22:57:17.562Z,24.61
2022-08-18T22:59:49.686Z,24.63
2022-08-18T23:02:22.149Z,24.69
2022-08-18T23:04:49.222Z,24.65
2022-08-18T23:07:16.015Z,24.60
2022-08-18T23:09:42.726Z,24.64
2022-08-18T23:12:15.728Z,24.70
2022-08-18T23:14:46.257Z,24.75
2022-08-18T23:17:14.139Z,24.78
2022-08-18T23:19:40.975Z,24.77
2022-08-18T23:22:09.341Z,24.82
2022-08-18T23:24:40.355Z,24.82
2022-08-18T23:27:07.910Z,24.88
2022-08-18T23:29:36.572Z,24.89
2022-08-18T23:32:05.796Z,24.89
2022-08-18T23:34:34.851Z,24.89
2022-08-18T23:37:03.102Z,24.83
2022-08-18T23:39:31.800Z,24.59
2022-08-18T23:41:59.306Z,24.56
2022-08-18T23:44:28.050Z,24.59
2022-08-18T23:46:57.921Z,24.57
2022-08-18T23:49:26.250Z,24.57
2022-08-18T23:51:56.116Z,24.53
2022-08-18T23:54:26.940Z,24.48
2022-08-18T23:56:53.655Z,24.51
2022-08-18T23:59:22.942Z,24.48
